Time;durP1;ratioP1;P1;durP2;ratioP2;P2;SDS_P1;SDS_P2;PMS_P1;PMS_P2;Temp;Humidity;BMP_temperature;BMP_pressure;BME280_temperature;BME280_humidity;BME280_pressure;Samples;Min_cycle;Max_cycle;Signal;HPM_P1;HPM_P2
2023/10/04 00:00:59;;;;;;;1.45;0.60;;;;;;;;;;5053056;28;20051;-57
2023/10/04 00:03:27;;;;;;;1.30;0.50;;;;;;;;;;5056828;28;20048;-57
2023/10/04 00:05:54;;;;;;;1.13;0.60;;;;;;;;;;5055961;28;20090;-57
2023/10/04 00:08:20;;;;;;;0.55;0.40;;;;;;;;;;5056474;28;20163;-57
2023/10/04 00:10:46;;;;;;;1.20;0.50;;;;;;;;;;5055366;28;20055;-57
2023/10/04 00:13:13;;;;;;;2.53;0.68;;;;;;;;;;5053302;28;20136;-57
2023/10/04 00:15:39;;;;;;;0.45;0.25;;;;;;;;;;5058032;28;20047;-58
2023/10/04 00:18:06;;;;;;;1.55;0.52;;;;;;;;;;5053915;28;20041;-58
2023/10/04 00:20:33;;;;;;;0.95;0.40;;;;;;;;;;5054034;28;20128;-58
2023/10/04 00:23:00;;;;;;;0.77;0.50;;;;;;;;;;5059488;28;20546;-57
2023/10/04 00:25:26;;;;;;;0.75;0.50;;;;;;;;;;5055245;28;20115;-57
2023/10/04 00:27:56;;;;;;;1.08;0.50;;;;;;;;;;5053352;28;20037;-58
2023/10/04 00:30:22;;;;;;;0.82;0.50;;;;;;;;;;5055784;28;20063;-57
2023/10/04 00:32:48;;;;;;;1.48;0.65;;;;;;;;;;5053813;28;20041;-57
2023/10/04 00:35:19;;;;;;;0.98;0.73;;;;;;;;;;5058606;28;20489;-58
2023/10/04 00:37:45;;;;;;;0.95;0.43;;;;;;;;;;5055853;28;20049;-57
2023/10/04 00:40:18;;;;;;;1.30;0.65;;;;;;;;;;5051299;28;20757;-57
2023/10/04 00:42:47;;;;;;;1.02;0.70;;;;;;;;;;5058155;28;20049;-58
2023/10/04 00:45:13;;;;;;;2.97;0.90;;;;;;;;;;5054117;28;20425;-57
2023/10/04 00:47:43;;;;;;;0.73;0.60;;;;;;;;;;5051251;28;20075;-57
2023/10/04 00:50:17;;;;;;;2.50;0.63;;;;;;;;;;5051375;28;20055;-57
2023/10/04 00:52:52;;;;;;;0.70;0.60;;;;;;;;;;5057929;28;20606;-57
2023/10/04 00:55:19;;;;;;;1.90;0.60;;;;;;;;;;5056737;28;20048;-57
2023/10/04 00:57:49;;;;;;;1.40;0.60;;;;;;;;;;5056307;28;20049;-58
2023/10/04 01:00:17;;;;;;;1.93;0.90;;;;;;;;;;5055492;28;20135;-58
2023/10/04 01:02:44;;;;;;;1.52;0.52;;;;;;;;;;5057088;28;20050;-57
2023/10/04 01:05:12;;;;;;;2.10;0.68;;;;;;;;;;5051119;28;20051;-58
2023/10/04 01:07:39;;;;;;;0.75;0.45;;;;;;;;;;5052768;28;20083;-58
2023/10/04 01:10:14;;;;;;;2.60;0.60;;;;;;;;;;5054675;28;20603;-58
2023/10/04 01:12:41;;;;;;;0.80;0.52;;;;;;;;;;5055982;28;20048;-56
2023/10/04 01:17:51;;;;;;;0.70;0.30;;;;;;;;;;5059739;28;20032;-58
2023/10/04 01:20:22;;;;;;;1.48;0.50;;;;;;;;;;5051632;28;20131;-58
2023/10/04 01:22:48;;;;;;;0.65;0.57;;;;;;;;;;5059530;28;20051;-58
2023/10/04 01:25:15;;;;;;;0.52;0.30;;;;;;;;;;5048874;28;20738;-59
2023/10/04 01:27:44;;;;;;;0.98;0.30;;;;;;;;;;5054106;28;20118;-58
2023/10/04 01:30:10;;;;;;;4.43;0.55;;;;;;;;;;5056212;28;20063;-59
2023/10/04 01:32:37;;;;;;;1.98;0.47;;;;;;;;;;5049094;28;20037;-58
2023/10/04 01:35:05;;;;;;;1.15;0.40;;;;;;;;;;5045723;28;20041;-58
2023/10/04 01:37:32;;;;;;;0.60;0.32;;;;;;;;;;5048999;28;20041;-56
2023/10/04 01:40:00;;;;;;;0.75;0.43;;;;;;;;;;5058489;28;20119;-57
2023/10/04 01:42:26;;;;;;;0.63;0.30;;;;;;;;;;5057450;28;20040;-56
2023/10/04 01:44:54;;;;;;;0.70;0.30;;;;;;;;;;5056450;28;20488;-57
2023/10/04 01:47:21;;;;;;;0.57;0.30;;;;;;;;;;5054735;28;20574;-56
2023/10/04 01:49:47;;;;;;;0.43;0.28;;;;;;;;;;5052441;28;20051;-56
2023/10/04 01:52:13;;;;;;;0.20;0.20;;;;;;;;;;5053282;28;20401;-56
2023/10/04 01:54:39;;;;;;;0.25;0.25;;;;;;;;;;5058981;28;20037;-56
2023/10/04 01:57:05;;;;;;;0.20;0.10;;;;;;;;;;5050013;28;20055;-57
2023/10/04 01:59:31;;;;;;;0.25;0.10;;;;;;;;;;5056894;28;20409;-57
2023/10/04 02:01:58;;;;;;;0.20;0.20;;;;;;;;;;5058010;28;20045;-56
2023/10/04 02:04:24;;;;;;;0.45;0.25;;;;;;;;;;5051763;28;20044;-57
2023/10/04 02:06:50;;;;;;;0.40;0.30;;;;;;;;;;5058257;28;20052;-57
2023/10/04 02:09:20;;;;;;;0.85;0.43;;;;;;;;;;5056637;28;20044;-57
2023/10/04 02:11:46;;;;;;;1.42;0.70;;;;;;;;;;5057818;28;20401;-56
2023/10/04 02:14:12;;;;;;;1.30;0.60;;;;;;;;;;5052638;28;20488;-56
2023/10/04 02:16:38;;;;;;;1.38;0.50;;;;;;;;;;5053336;28;20037;-57
2023/10/04 02:19:04;;;;;;;1.23;0.70;;;;;;;;;;5054436;28;20102;-56
2023/10/04 02:21:30;;;;;;;1.33;0.70;;;;;;;;;;5056032;28;20036;-56
2023/10/04 02:23:57;;;;;;;2.42;1.08;;;;;;;;;;5055522;28;20127;-57
2023/10/04 02:26:23;;;;;;;3.15;1.15;;;;;;;;;;5053636;28;20128;-56
2023/10/04 02:28:51;;;;;;;4.32;1.35;;;;;;;;;;5052617;28;20055;-56
2023/10/04 02:31:21;;;;;;;1.95;1.10;;;;;;;;;;5050126;28;20049;-57
2023/10/04 02:33:47;;;;;;;1.08;0.70;;;;;;;;;;5048060;28;20033;-57
2023/10/04 02:36:13;;;;;;;2.17;0.75;;;;;;;;;;5053446;28;20049;-57
2023/10/04 02:38:39;;;;;;;1.60;0.82;;;;;;;;;;5050947;28;20040;-57
2023/10/04 02:41:06;;;;;;;1.83;0.75;;;;;;;;;;5053167;28;20467;-58
2023/10/04 02:43:32;;;;;;;1.25;0.85;;;;;;;;;;5055974;28;20499;-57
2023/10/04 02:45:59;;;;;;;2.20;0.80;;;;;;;;;;5050234;28;20555;-57
2023/10/04 02:48:25;;;;;;;4.22;1.02;;;;;;;;;;5053610;28;20045;-57
2023/10/04 02:50:53;;;;;;;2.50;0.77;;;;;;;;;;5056636;28;20386;-57
2023/10/04 02:53:25;;;;;;;2.58;1.02;;;;;;;;;;5053030;28;20124;-58
2023/10/04 02:55:54;;;;;;;1.95;0.60;;;;;;;;;;5051034;28;20049;-58
2023/10/04 02:58:21;;;;;;;1.25;0.43;;;;;;;;;;5051642;28;20067;-58
2023/10/04 03:00:49;;;;;;;0.60;0.30;;;;;;;;;;5056322;28;20128;-57
2023/10/04 03:03:21;;;;;;;0.73;0.52;;;;;;;;;;5058228;28;20128;-57
2023/10/04 03:05:48;;;;;;;0.85;0.70;;;;;;;;;;5053785;28;20037;-57
2023/10/04 03:08:17;;;;;;;1.65;0.52;;;;;;;;;;5053652;28;20771;-57
2023/10/04 03:10:45;;;;;;;0.40;0.35;;;;;;;;;;5065822;28;20040;-58
2023/10/04 03:13:25;;;;;;;0.30;0.30;;;;;;;;;;5048710;28;20110;-58
2023/10/04 03:15:54;;;;;;;0.85;0.40;;;;;;;;;;5053986;28;20045;-58
2023/10/04 03:18:25;;;;;;;0.50;0.40;;;;;;;;;;5052832;28;20049;-58
2023/10/04 03:21:00;;;;;;;0.70;0.43;;;;;;;;;;5050650;28;20186;-57
2023/10/04 03:23:31;;;;;;;1.80;0.52;;;;;;;;;;5052664;28;20049;-58
2023/10/04 03:25:59;;;;;;;0.70;0.50;;;;;;;;;;5056749;28;20047;-58
2023/10/04 03:28:33;;;;;;;2.00;0.55;;;;;;;;;;5045388;28;20125;-58
2023/10/04 03:31:04;;;;;;;0.60;0.40;;;;;;;;;;5057445;28;20060;-58
2023/10/04 03:33:35;;;;;;;0.38;0.38;;;;;;;;;;5055023;28;20083;-58
2023/10/04 03:36:05;;;;;;;1.20;0.70;;;;;;;;;;5049486;28;20337;-57
2023/10/04 03:38:34;;;;;;;3.38;0.50;;;;;;;;;;5052031;28;20048;-58
2023/10/04 03:41:04;;;;;;;0.82;0.60;;;;;;;;;;5053748;28;20079;-57
2023/10/04 03:43:31;;;;;;;1.15;0.50;;;;;;;;;;5053360;28;20048;-57
2023/10/04 03:45:57;;;;;;;1.48;0.85;;;;;;;;;;5047675;28;20094;-57
2023/10/04 03:48:23;;;;;;;1.00;0.50;;;;;;;;;;5051873;28;20048;-57
2023/10/04 03:50:51;;;;;;;2.03;0.88;;;;;;;;;;5051731;28;20049;-58
2023/10/04 03:53:20;;;;;;;1.25;0.75;;;;;;;;;;5051292;28;20084;-58
2023/10/04 03:55:47;;;;;;;1.95;1.00;;;;;;;;;;5048375;28;20044;-58
2023/10/04 03:58:15;;;;;;;1.95;0.68;;;;;;;;;;5057119;28;20515;-58
2023/10/04 04:00:41;;;;;;;1.42;0.80;;;;;;;;;;5051776;28;20049;-57
2023/10/04 04:03:08;;;;;;;1.25;0.77;;;;;;;;;;5051191;28;20516;-58
2023/10/04 04:05:41;;;;;;;5.75;0.75;;;;;;;;;;5047651;28;20190;-58
2023/10/04 04:08:08;;;;;;;0.85;0.50;;;;;;;;;;5052634;28;20040;-57
2023/10/04 04:10:35;;;;;;;0.68;0.47;;;;;;;;;;5056438;28;20149;-58
2023/10/04 04:13:02;;;;;;;2.22;0.80;;;;;;;;;;5058430;28;20549;-57
2023/10/04 04:15:34;;;;;;;0.73;0.60;;;;;;;;;;5048713;28;20162;-58
2023/10/04 04:18:03;;;;;;;1.15;0.80;;;;;;;;;;5050023;28;20497;-57
2023/10/04 04:20:31;;;;;;;1.02;0.88;;;;;;;;;;5051918;28;20045;-58
2023/10/04 04:22:57;;;;;;;1.80;0.75;;;;;;;;;;5052570;28;20485;-57
2023/10/04 04:25:24;;;;;;;1.38;0.73;;;;;;;;;;5052626;28;20117;-57
2023/10/04 04:27:56;;;;;;;3.10;1.10;;;;;;;;;;5060362;28;20028;-58
2023/10/04 04:30:27;;;;;;;3.85;1.33;;;;;;;;;;5056438;28;20099;-57
2023/10/04 04:32:56;;;;;;;1.90;1.00;;;;;;;;;;5055633;28;20094;-58
2023/10/04 04:38:16;;;;;;;1.35;0.40;;;;;;;;;;5054824;28;20052;-58
2023/10/04 04:40:49;;;;;;;0.80;0.50;;;;;;;;;;5053389;28;20044;-57
2023/10/04 04:45:50;;;;;;;0.60;0.52;;;;;;;;;;5054268;28;20041;-57
2023/10/04 04:48:24;;;;;;;0.63;0.47;;;;;;;;;;5054372;28;20047;-57
2023/10/04 04:50:54;;;;;;;0.40;0.38;;;;;;;;;;5050626;28;20084;-57
2023/10/04 04:53:21;;;;;;;0.55;0.40;;;;;;;;;;5053997;28;20067;-58
2023/10/04 04:55:48;;;;;;;0.73;0.38;;;;;;;;;;5053004;28;20056;-57
2023/10/04 04:58:14;;;;;;;0.32;0.32;;;;;;;;;;5053036;28;20041;-57
2023/10/04 05:00:43;;;;;;;0.73;0.20;;;;;;;;;;5051322;28;20051;-57
2023/10/04 05:03:10;;;;;;;0.90;0.55;;;;;;;;;;5052943;28;20437;-58
2023/10/04 05:05:36;;;;;;;0.68;0.30;;;;;;;;;;5055200;28;20090;-57
2023/10/04 05:08:02;;;;;;;0.50;0.22;;;;;;;;;;5052833;28;20068;-58
2023/10/04 05:10:34;;;;;;;0.20;0.20;;;;;;;;;;5050969;28;20063;-57
2023/10/04 05:13:01;;;;;;;0.35;0.22;;;;;;;;;;5053919;28;20576;-58
2023/10/04 05:15:34;;;;;;;1.15;0.40;;;;;;;;;;5052170;28;20075;-57
2023/10/04 05:18:03;;;;;;;0.63;0.35;;;;;;;;;;5056079;28;20056;-57
2023/10/04 05:20:31;;;;;;;1.88;0.80;;;;;;;;;;5051312;28;20047;-58
2023/10/04 05:22:57;;;;;;;0.60;0.40;;;;;;;;;;5054293;28;20614;-57
2023/10/04 05:25:23;;;;;;;0.70;0.40;;;;;;;;;;5052157;28;20518;-57
2023/10/04 05:27:50;;;;;;;2.08;0.60;;;;;;;;;;5051063;28;20036;-57
2023/10/04 05:30:18;;;;;;;1.27;0.80;;;;;;;;;;5053203;28;20404;-57
2023/10/04 05:32:45;;;;;;;2.35;1.10;;;;;;;;;;5050975;28;20041;-57
2023/10/04 05:35:12;;;;;;;1.48;0.65;;;;;;;;;;5052498;28;20040;-57
2023/10/04 05:37:44;;;;;;;4.05;0.88;;;;;;;;;;5060932;28;20404;-57
2023/10/04 05:40:16;;;;;;;1.65;0.75;;;;;;;;;;5061083;28;20048;-57
2023/10/04 05:42:42;;;;;;;1.73;0.85;;;;;;;;;;5057771;28;20504;-57
2023/10/04 05:45:10;;;;;;;2.15;0.85;;;;;;;;;;5060722;28;20051;-57
2023/10/04 05:47:37;;;;;;;3.47;1.08;;;;;;;;;;5059272;28;20090;-57
2023/10/04 05:50:10;;;;;;;1.85;1.02;;;;;;;;;;5055824;28;20056;-57
2023/10/04 05:52:36;;;;;;;2.05;0.93;;;;;;;;;;5052067;28;20032;-58
2023/10/04 05:55:03;;;;;;;1.25;0.70;;;;;;;;;;5054165;28;20044;-57
2023/10/04 05:57:29;;;;;;;0.85;0.60;;;;;;;;;;5056637;28;20052;-57
2023/10/04 05:59:55;;;;;;;2.70;0.70;;;;;;;;;;5049084;28;20106;-57
2023/10/04 06:02:22;;;;;;;2.20;1.23;;;;;;;;;;5052737;28;20040;-57
2023/10/04 06:04:49;;;;;;;1.95;0.80;;;;;;;;;;5048088;28;20044;-57
2023/10/04 06:07:15;;;;;;;1.58;0.60;;;;;;;;;;5051802;28;20710;-57
2023/10/04 06:09:42;;;;;;;2.38;1.02;;;;;;;;;;5050046;28;20047;-58
2023/10/04 06:12:11;;;;;;;1.60;0.90;;;;;;;;;;5055602;28;20036;-57
2023/10/04 06:14:37;;;;;;;2.08;0.70;;;;;;;;;;5049272;28;20493;-57
2023/10/04 06:17:04;;;;;;;1.00;0.55;;;;;;;;;;5049739;28;20041;-58
2023/10/04 06:19:30;;;;;;;1.95;0.70;;;;;;;;;;5050368;28;20136;-57
2023/10/04 06:21:57;;;;;;;0.43;0.40;;;;;;;;;;5055867;28;20044;-58
2023/10/04 06:24:23;;;;;;;1.00;0.60;;;;;;;;;;5056520;28;20071;-58
2023/10/04 06:26:49;;;;;;;0.45;0.30;;;;;;;;;;5054741;28;20036;-57
2023/10/04 06:29:15;;;;;;;1.90;1.02;;;;;;;;;;5053237;28;20047;-57
2023/10/04 06:31:41;;;;;;;2.03;0.77;;;;;;;;;;5052693;28;20341;-57
2023/10/04 06:34:07;;;;;;;1.15;0.75;;;;;;;;;;5052925;28;20067;-57
2023/10/04 06:36:33;;;;;;;2.58;0.95;;;;;;;;;;5052092;28;20045;-57
2023/10/04 06:38:59;;;;;;;1.25;0.77;;;;;;;;;;5053259;28;20040;-58
2023/10/04 06:41:26;;;;;;;0.68;0.63;;;;;;;;;;5052339;28;20048;-58
2023/10/04 06:43:53;;;;;;;0.55;0.45;;;;;;;;;;5056160;28;20097;-57
2023/10/04 06:46:19;;;;;;;1.38;0.70;;;;;;;;;;5050138;28;20134;-57
2023/10/04 06:48:45;;;;;;;1.40;0.75;;;;;;;;;;5056523;28;20045;-57
2023/10/04 06:51:11;;;;;;;2.45;1.25;;;;;;;;;;5058832;28;20040;-57
2023/10/04 06:53:43;;;;;;;3.17;1.30;;;;;;;;;;5054124;28;20469;-57
2023/10/04 06:56:09;;;;;;;2.22;1.25;;;;;;;;;;5048110;28;20071;-57
2023/10/04 06:58:35;;;;;;;6.55;2.03;;;;;;;;;;5054316;28;20048;-57
2023/10/04 07:01:01;;;;;;;3.35;1.92;;;;;;;;;;5049426;28;20041;-58
2023/10/04 07:03:29;;;;;;;3.53;1.80;;;;;;;;;;5043381;28;20052;-57
2023/10/04 07:05:55;;;;;;;3.50;1.80;;;;;;;;;;5055070;28;20072;-57
2023/10/04 07:08:21;;;;;;;2.20;1.90;;;;;;;;;;5049146;28;20598;-57
2023/10/04 07:10:47;;;;;;;1.33;1.23;;;;;;;;;;5056173;28;20164;-57
2023/10/04 07:13:13;;;;;;;9.73;2.15;;;;;;;;;;5055677;28;20056;-57
2023/10/04 07:15:39;;;;;;;6.85;2.22;;;;;;;;;;5049551;28;20045;-57
2023/10/04 07:18:06;;;;;;;3.15;1.80;;;;;;;;;;5049036;28;20037;-58
2023/10/04 07:20:33;;;;;;;5.20;2.50;;;;;;;;;;5052857;28;20053;-57
2023/10/04 07:22:59;;;;;;;3.38;2.28;;;;;;;;;;5054835;28;20458;-58
2023/10/04 07:25:29;;;;;;;4.90;2.00;;;;;;;;;;5054654;28;20029;-57
2023/10/04 07:27:57;;;;;;;3.88;2.13;;;;;;;;;;5052942;28;20036;-57
2023/10/04 07:30:24;;;;;;;5.95;2.40;;;;;;;;;;5053667;28;20614;-57
2023/10/04 07:32:51;;;;;;;4.82;2.33;;;;;;;;;;5053096;28;20053;-57
2023/10/04 07:35:20;;;;;;;3.70;2.42;;;;;;;;;;5050501;28;20107;-58
2023/10/04 07:37:46;;;;;;;3.42;1.95;;;;;;;;;;5054307;28;20090;-58
2023/10/04 07:40:14;;;;;;;2.53;1.90;;;;;;;;;;5053276;28;20051;-58
2023/10/04 07:42:41;;;;;;;4.75;2.63;;;;;;;;;;5050652;28;20048;-62
2023/10/04 07:45:08;;;;;;;4.15;1.90;;;;;;;;;;5045943;28;20090;-58
2023/10/04 07:47:37;;;;;;;6.38;2.47;;;;;;;;;;5044894;28;20048;-65
2023/10/04 07:50:05;;;;;;;7.50;2.30;;;;;;;;;;5045642;28;20059;-64
2023/10/04 07:52:31;;;;;;;8.65;2.83;;;;;;;;;;5046196;28;20044;-58
2023/10/04 07:54:59;;;;;;;5.30;3.03;;;;;;;;;;5052579;28;20041;-58
2023/10/04 07:57:26;;;;;;;5.72;1.80;;;;;;;;;;5048531;28;20048;-58
2023/10/04 07:59:52;;;;;;;4.15;2.00;;;;;;;;;;5047998;28;20460;-58
2023/10/04 08:02:18;;;;;;;3.15;1.92;;;;;;;;;;5049674;28;20122;-58
2023/10/04 08:04:48;;;;;;;8.05;2.63;;;;;;;;;;5049522;28;20073;-58
2023/10/04 08:07:15;;;;;;;2.20;1.58;;;;;;;;;;5051677;28;20102;-58
2023/10/04 08:09:41;;;;;;;3.90;2.38;;;;;;;;;;5046414;28;20041;-59
2023/10/04 08:12:08;;;;;;;6.13;1.95;;;;;;;;;;5051768;28;20052;-58
2023/10/04 08:14:34;;;;;;;7.07;2.75;;;;;;;;;;5047969;28;20052;-58
2023/10/04 08:17:01;;;;;;;8.00;2.80;;;;;;;;;;5054524;28;20036;-58
2023/10/04 08:19:27;;;;;;;4.53;2.38;;;;;;;;;;5048798;28;20112;-61
2023/10/04 08:21:53;;;;;;;3.78;2.20;;;;;;;;;;5048035;28;20408;-59
2023/10/04 08:24:20;;;;;;;2.95;2.08;;;;;;;;;;5048415;28;20493;-58
2023/10/04 08:26:48;;;;;;;3.15;2.05;;;;;;;;;;5049458;28;20075;-58
2023/10/04 08:29:15;;;;;;;7.28;2.60;;;;;;;;;;5046530;28;20053;-59
2023/10/04 08:31:41;;;;;;;8.85;3.22;;;;;;;;;;5052473;28;20041;-58
2023/10/04 08:34:07;;;;;;;7.28;2.70;;;;;;;;;;5054422;28;20127;-58
2023/10/04 08:36:33;;;;;;;6.38;3.25;;;;;;;;;;5052160;28;20037;-58
2023/10/04 08:39:00;;;;;;;4.75;3.13;;;;;;;;;;5059367;28;20048;-58
2023/10/04 08:41:27;;;;;;;6.22;3.00;;;;;;;;;;5052351;28;20033;-58
2023/10/04 08:43:53;;;;;;;6.65;3.03;;;;;;;;;;5048939;28;20041;-57
2023/10/04 08:46:20;;;;;;;5.80;3.55;;;;;;;;;;5046559;28;20725;-58
2023/10/04 08:48:53;;;;;;;6.15;2.83;;;;;;;;;;5049103;28;20539;-57
2023/10/04 08:51:27;;;;;;;6.22;2.50;;;;;;;;;;5045571;28;20044;-58
2023/10/04 08:53:59;;;;;;;5.45;2.83;;;;;;;;;;5052806;28;20041;-58
2023/10/04 08:56:27;;;;;;;6.97;3.15;;;;;;;;;;5047026;28;20064;-58
2023/10/04 08:58:55;;;;;;;10.30;3.47;;;;;;;;;;5047087;28;20124;-58
2023/10/04 09:01:21;;;;;;;6.65;2.83;;;;;;;;;;5048456;28;20049;-57
2023/10/04 09:03:48;;;;;;;3.72;2.42;;;;;;;;;;5046388;28;20036;-58
2023/10/04 09:06:14;;;;;;;8.10;3.25;;;;;;;;;;5047791;28;20037;-58
2023/10/04 09:08:41;;;;;;;9.20;3.92;;;;;;;;;;5048183;28;20060;-58
2023/10/04 09:11:11;;;;;;;5.50;2.97;;;;;;;;;;5047206;28;20047;-58
2023/10/04 09:13:44;;;;;;;4.90;3.35;;;;;;;;;;5046871;28;20068;-58
2023/10/04 09:16:28;;;;;;;8.80;2.95;;;;;;;;;;5048995;28;20101;-58
2023/10/04 09:19:03;;;;;;;6.28;3.17;;;;;;;;;;5047868;28;20049;-59
2023/10/04 09:21:29;;;;;;;8.88;3.78;;;;;;;;;;5048406;28;20041;-58
2023/10/04 09:24:09;;;;;;;7.43;3.17;;;;;;;;;;5048008;28;20078;-58
2023/10/04 09:26:39;;;;;;;8.45;3.88;;;;;;;;;;5047481;28;20071;-57
2023/10/04 09:29:05;;;;;;;6.28;3.47;;;;;;;;;;5048149;28;20073;-58
2023/10/04 09:31:45;;;;;;;5.03;3.13;;;;;;;;;;5047819;28;20750;-58
2023/10/04 09:34:14;;;;;;;6.45;3.15;;;;;;;;;;5048209;28;20491;-58
2023/10/04 09:36:41;;;;;;;6.85;2.95;;;;;;;;;;5048030;28;20032;-59
2023/10/04 09:39:23;;;;;;;4.50;3.60;;;;;;;;;;5047505;28;20381;-57
2023/10/04 09:41:50;;;;;;;6.28;3.58;;;;;;;;;;5047952;28;20056;-57
2023/10/04 09:44:26;;;;;;;5.88;2.88;;;;;;;;;;5049116;28;20044;-57
2023/10/04 09:47:01;;;;;;;8.77;3.60;;;;;;;;;;5050491;28;20561;-58
2023/10/04 09:49:31;;;;;;;5.43;2.83;;;;;;;;;;5044002;28;20052;-58
2023/10/04 09:51:57;;;;;;;8.48;3.83;;;;;;;;;;5045415;28;20059;-57
2023/10/04 09:54:24;;;;;;;11.60;3.40;;;;;;;;;;5044878;28;20040;-58
2023/10/04 09:56:52;;;;;;;6.55;3.45;;;;;;;;;;5047193;28;20052;-58
2023/10/04 09:59:21;;;;;;;6.88;3.40;;;;;;;;;;5040559;28;20044;-58
2023/10/04 10:01:52;;;;;;;4.95;2.70;;;;;;;;;;5038338;28;20040;-58
2023/10/04 10:04:23;;;;;;;8.35;3.80;;;;;;;;;;5040695;28;20046;-59
2023/10/04 10:06:58;;;;;;;8.32;3.30;;;;;;;;;;5046387;28;20797;-58
2023/10/04 10:09:25;;;;;;;6.20;3.22;;;;;;;;;;5046199;28;20044;-58
2023/10/04 10:11:52;;;;;;;8.90;3.47;;;;;;;;;;5045258;28;20037;-57
2023/10/04 10:14:20;;;;;;;10.13;3.97;;;;;;;;;;5038961;28;20116;-58
2023/10/04 10:16:46;;;;;;;5.35;2.80;;;;;;;;;;5047371;28;20041;-58
2023/10/04 10:19:13;;;;;;;7.85;4.30;;;;;;;;;;5044725;28;20519;-58
2023/10/04 10:21:58;;;;;;;6.47;3.70;;;;;;;;;;5043405;28;20410;-58
2023/10/04 10:24:24;;;;;;;8.50;3.60;;;;;;;;;;5037713;28;20087;-58
2023/10/04 10:27:02;;;;;;;8.65;4.20;;;;;;;;;;5041877;28;20091;-58
2023/10/04 10:29:31;;;;;;;10.88;4.45;;;;;;;;;;5034335;28;20037;-59
2023/10/04 10:31:57;;;;;;;8.48;4.30;;;;;;;;;;5036112;28;20110;-58
2023/10/04 10:34:23;;;;;;;4.65;3.55;;;;;;;;;;5042117;28;20073;-58
2023/10/04 10:37:07;;;;;;;7.43;3.88;;;;;;;;;;5038740;28;20120;-59
2023/10/04 10:39:42;;;;;;;8.80;4.28;;;;;;;;;;5042080;28;20068;-58
2023/10/04 10:42:11;;;;;;;7.63;3.47;;;;;;;;;;5043270;28;20220;-58
2023/10/04 10:44:39;;;;;;;7.28;3.60;;;;;;;;;;5040859;28;20057;-58
2023/10/04 10:47:08;;;;;;;8.50;4.07;;;;;;;;;;5043797;28;20036;-59
2023/10/04 10:49:37;;;;;;;6.45;3.55;;;;;;;;;;5036274;28;20037;-59
2023/10/04 10:52:04;;;;;;;6.40;2.88;;;;;;;;;;5045979;28;20091;-59
2023/10/04 10:54:31;;;;;;;9.73;4.20;;;;;;;;;;5043504;28;20049;-58
2023/10/04 10:56:58;;;;;;;10.38;4.18;;;;;;;;;;5044013;28;20442;-59
2023/10/04 10:59:24;;;;;;;11.70;4.32;;;;;;;;;;5043817;28;20044;-59
2023/10/04 11:01:50;;;;;;;7.57;3.75;;;;;;;;;;5044329;28;20051;-59
2023/10/04 11:04:16;;;;;;;6.60;3.92;;;;;;;;;;5044130;28;20044;-58
2023/10/04 11:06:43;;;;;;;10.68;4.63;;;;;;;;;;5040416;28;20049;-58
2023/10/04 11:09:09;;;;;;;7.10;4.15;;;;;;;;;;5045542;28;20124;-59
2023/10/04 11:11:35;;;;;;;7.78;4.40;;;;;;;;;;5044670;28;20826;-59
2023/10/04 11:14:05;;;;;;;8.07;4.65;;;;;;;;;;5045519;28;20052;-59
2023/10/04 11:16:33;;;;;;;6.22;3.78;;;;;;;;;;5042165;28;20049;-59
2023/10/04 11:19:03;;;;;;;10.95;4.60;;;;;;;;;;5042852;28;20080;-59
2023/10/04 11:21:30;;;;;;;7.72;4.28;;;;;;;;;;5042883;28;20044;-59
2023/10/04 11:23:56;;;;;;;8.13;4.07;;;;;;;;;;5045297;28;20098;-59
2023/10/04 11:26:22;;;;;;;10.20;4.28;;;;;;;;;;5044643;28;20405;-59
2023/10/04 11:28:49;;;;;;;7.90;3.97;;;;;;;;;;5043420;28;20465;-59
2023/10/04 11:31:16;;;;;;;11.15;4.35;;;;;;;;;;5043491;28;20102;-59
2023/10/04 11:33:49;;;;;;;10.55;3.90;;;;;;;;;;5045796;28;20048;-58
2023/10/04 11:36:22;;;;;;;8.57;3.90;;;;;;;;;;5045998;28;20045;-60
2023/10/04 11:38:49;;;;;;;4.85;3.50;;;;;;;;;;5042581;28;20044;-58
2023/10/04 11:41:16;;;;;;;7.70;3.67;;;;;;;;;;5044911;28;20037;-58
2023/10/04 11:43:44;;;;;;;8.30;4.15;;;;;;;;;;5043082;28;20045;-58
2023/10/04 11:46:10;;;;;;;7.47;4.00;;;;;;;;;;5039238;28;20048;-58
2023/10/04 11:48:36;;;;;;;8.20;3.50;;;;;;;;;;5044478;28;20769;-58
2023/10/04 11:51:04;;;;;;;5.55;3.15;;;;;;;;;;5042782;28;20045;-58
2023/10/04 11:53:31;;;;;;;8.43;3.78;;;;;;;;;;5041983;28;20519;-58
2023/10/04 11:56:01;;;;;;;6.03;3.15;;;;;;;;;;5043995;28;20060;-58
2023/10/04 11:58:33;;;;;;;7.18;4.28;;;;;;;;;;5043718;28;20049;-58
2023/10/04 12:01:05;;;;;;;8.38;3.95;;;;;;;;;;5041554;28;20044;-58
2023/10/04 12:03:34;;;;;;;6.75;3.78;;;;;;;;;;5039218;28;20480;-57
2023/10/04 12:06:00;;;;;;;7.45;3.97;;;;;;;;;;5043959;28;20037;-58
2023/10/04 12:08:28;;;;;;;10.82;3.95;;;;;;;;;;5044415;28;20037;-58
2023/10/04 12:10:55;;;;;;;6.72;3.90;;;;;;;;;;5037083;28;20045;-58
2023/10/04 12:13:21;;;;;;;8.00;4.03;;;;;;;;;;5045071;28;20059;-58
2023/10/04 12:15:48;;;;;;;9.32;3.83;;;;;;;;;;5044199;28;20045;-58
2023/10/04 12:18:15;;;;;;;9.23;3.70;;;;;;;;;;5044913;28;20040;-58
2023/10/04 12:20:42;;;;;;;6.47;3.42;;;;;;;;;;5044445;28;20048;-58
2023/10/04 12:23:11;;;;;;;6.43;3.13;;;;;;;;;;5044894;28;20116;-58
2023/10/04 12:25:43;;;;;;;6.90;3.20;;;;;;;;;;5045306;28;20051;-57
2023/10/04 12:28:10;;;;;;;7.55;3.22;;;;;;;;;;5044369;28;20056;-58
2023/10/04 12:30:36;;;;;;;4.75;3.00;;;;;;;;;;5044880;28;20044;-58
2023/10/04 12:33:02;;;;;;;6.40;3.25;;;;;;;;;;5045063;28;20041;-57
2023/10/04 12:35:29;;;;;;;6.22;2.97;;;;;;;;;;5044167;28;20116;-58
2023/10/04 12:37:55;;;;;;;8.32;3.28;;;;;;;;;;5044252;28;20037;-58
2023/10/04 12:40:24;;;;;;;5.47;2.90;;;;;;;;;;5044683;28;20064;-58
2023/10/04 12:42:53;;;;;;;7.85;3.03;;;;;;;;;;5044372;28;20037;-58
2023/10/04 12:45:20;;;;;;;8.13;2.95;;;;;;;;;;5044564;28;20052;-58
2023/10/04 12:47:46;;;;;;;7.50;2.70;;;;;;;;;;5045740;28;20091;-58
2023/10/04 12:50:15;;;;;;;5.70;2.47;;;;;;;;;;5047864;28;20076;-58
2023/10/04 12:52:45;;;;;;;4.35;1.80;;;;;;;;;;5050038;28;20478;-58
2023/10/04 12:55:11;;;;;;;8.23;2.75;;;;;;;;;;5052759;28;20041;-58
2023/10/04 12:57:40;;;;;;;7.53;3.15;;;;;;;;;;5045326;28;20056;-57
2023/10/04 13:00:13;;;;;;;6.45;2.60;;;;;;;;;;5041596;28;20052;-58
2023/10/04 13:02:47;;;;;;;4.68;2.55;;;;;;;;;;5041245;28;20118;-57
2023/10/04 13:05:18;;;;;;;3.10;1.90;;;;;;;;;;5038088;28;20053;-58
2023/10/04 13:07:44;;;;;;;5.78;2.03;;;;;;;;;;5040827;28;20080;-57
2023/10/04 13:10:11;;;;;;;5.63;2.22;;;;;;;;;;5042055;28;20127;-58
2023/10/04 13:12:38;;;;;;;4.45;2.17;;;;;;;;;;5039595;28;20077;-57
2023/10/04 13:15:05;;;;;;;6.38;2.30;;;;;;;;;;5037406;28;20036;-58
2023/10/04 13:17:31;;;;;;;3.97;2.40;;;;;;;;;;5034286;28;20037;-57
2023/10/04 13:19:57;;;;;;;6.03;2.45;;;;;;;;;;5042931;28;20049;-58
2023/10/04 13:22:23;;;;;;;6.53;2.78;;;;;;;;;;5041186;28;20479;-58
2023/10/04 13:24:49;;;;;;;6.85;2.13;;;;;;;;;;5035332;28;20041;-58
2023/10/04 13:27:15;;;;;;;11.18;2.70;;;;;;;;;;5038861;28;20723;-58
2023/10/04 13:29:41;;;;;;;3.95;2.05;;;;;;;;;;5036475;28;20037;-58
2023/10/04 13:32:07;;;;;;;4.07;2.42;;;;;;;;;;5038821;28;21204;-57
2023/10/04 13:34:33;;;;;;;8.07;2.55;;;;;;;;;;5040399;28;20063;-58
2023/10/04 13:36:59;;;;;;;5.53;2.28;;;;;;;;;;5035815;28;20041;-58
2023/10/04 13:39:27;;;;;;;4.25;2.05;;;;;;;;;;5036007;28;20067;-56
2023/10/04 13:41:53;;;;;;;4.25;2.00;;;;;;;;;;5035152;28;20053;-58
2023/10/04 13:44:19;;;;;;;3.25;1.60;;;;;;;;;;5034631;28;20041;-58
2023/10/04 13:46:48;;;;;;;2.05;1.42;;;;;;;;;;5036796;28;20045;-58
2023/10/04 13:49:14;;;;;;;2.70;1.38;;;;;;;;;;5033844;28;20048;-58
2023/10/04 13:51:42;;;;;;;4.30;2.15;;;;;;;;;;5036053;28;20045;-57
2023/10/04 13:54:08;;;;;;;7.53;2.55;;;;;;;;;;5034494;28;20045;-57
2023/10/04 13:56:35;;;;;;;4.65;2.25;;;;;;;;;;5033271;28;20065;-58
2023/10/04 13:59:02;;;;;;;6.03;2.25;;;;;;;;;;5035065;28;20053;-58
2023/10/04 14:01:28;;;;;;;3.88;2.10;;;;;;;;;;5044128;28;20036;-58
2023/10/04 14:03:54;;;;;;;5.32;2.28;;;;;;;;;;5039202;28;20040;-58
2023/10/04 14:06:21;;;;;;;4.35;2.10;;;;;;;;;;5043906;28;20576;-58
2023/10/04 14:08:49;;;;;;;6.32;2.05;;;;;;;;;;5041885;28;20662;-58
2023/10/04 14:11:15;;;;;;;3.83;1.95;;;;;;;;;;5046142;28;20041;-58
2023/10/04 14:13:42;;;;;;;7.35;2.50;;;;;;;;;;5045001;28;20575;-58
2023/10/04 14:16:08;;;;;;;3.67;2.35;;;;;;;;;;5042578;28;20453;-58
2023/10/04 14:18:34;;;;;;;4.93;2.08;;;;;;;;;;5044937;28;20067;-58
2023/10/04 14:21:00;;;;;;;3.55;1.90;;;;;;;;;;5043879;28;20051;-58
2023/10/04 14:23:26;;;;;;;4.38;1.70;;;;;;;;;;5044012;28;20053;-58
2023/10/04 14:25:59;;;;;;;5.20;2.10;;;;;;;;;;5045367;28;20066;-58
2023/10/04 14:28:25;;;;;;;4.90;2.25;;;;;;;;;;5043630;28;20032;-58
2023/10/04 14:30:51;;;;;;;4.82;1.95;;;;;;;;;;5035898;28;20057;-58
2023/10/04 14:33:17;;;;;;;6.30;2.38;;;;;;;;;;5036323;28;20151;-58
2023/10/04 14:35:44;;;;;;;3.40;1.60;;;;;;;;;;5044336;28;20033;-58
2023/10/04 14:38:10;;;;;;;3.55;1.85;;;;;;;;;;5044758;28;20520;-58
2023/10/04 14:40:36;;;;;;;5.00;1.95;;;;;;;;;;5044631;28;20507;-58
2023/10/04 14:43:02;;;;;;;4.90;1.77;;;;;;;;;;5044597;28;20040;-58
2023/10/04 14:45:28;;;;;;;5.70;2.10;;;;;;;;;;5044287;28;20060;-59
2023/10/04 14:47:54;;;;;;;3.00;1.45;;;;;;;;;;5043062;28;20086;-58
2023/10/04 14:50:21;;;;;;;4.65;1.60;;;;;;;;;;5044226;28;20057;-58
2023/10/04 14:52:48;;;;;;;5.78;1.80;;;;;;;;;;5045325;28;20047;-58
2023/10/04 14:55:17;;;;;;;2.97;1.63;;;;;;;;;;5044496;28;20115;-58